sensor_id;sensor_type;location;lat;lon;timestamp;pressure;altitude;pressure_sealevel;temperature;humidity
22018;BME280;11173;51.050;7.108;2023-07-02T00:09:34;98750.41;;;16.43;73.56
22018;BME280;11173;51.050;7.108;2023-07-02T00:19:35;98745.47;;;16.38;73.35
22018;BME280;11173;51.050;7.108;2023-07-02T00:29:35;98744.88;;;16.34;73.22
22018;BME280;11173;51.050;7.108;2023-07-02T00:39:35;98739.84;;;16.38;71.67
22018;BME280;11173;51.050;7.108;2023-07-02T00:49:36;98745.97;;;16.51;69.81
22018;BME280;11173;51.050;7.108;2023-07-02T00:59:36;98729.41;;;16.53;68.88
22018;BME280;11173;51.050;7.108;2023-07-02T01:09:38;98734.41;;;16.49;68.97
22018;BME280;11173;51.050;7.108;2023-07-02T01:19:45;98738.38;;;16.42;69.76
22018;BME280;11173;51.050;7.108;2023-07-02T01:29:52;98735.69;;;16.33;69.28
22018;BME280;11173;51.050;7.108;2023-07-02T01:39:52;98733.25;;;16.26;70.02
22018;BME280;11173;51.050;7.108;2023-07-02T01:49:53;98730.50;;;16.17;69.86
22018;BME280;11173;51.050;7.108;2023-07-02T01:59:53;98733.41;;;16.07;70.93
22018;BME280;11173;51.050;7.108;2023-07-02T02:09:54;98742.38;;;15.97;70.99
22018;BME280;11173;51.050;7.108;2023-07-02T02:19:54;98750.69;;;15.91;70.75
22018;BME280;11173;51.050;7.108;2023-07-02T02:29:54;98733.63;;;15.80;70.35
22018;BME280;11173;51.050;7.108;2023-07-02T02:39:55;98759.16;;;15.58;71.39
22018;BME280;11173;51.050;7.108;2023-07-02T02:49:57;98762.66;;;15.43;72.08
22018;BME280;11173;51.050;7.108;2023-07-02T02:59:58;98772.50;;;15.39;72.04
22018;BME280;11173;51.050;7.108;2023-07-02T03:09:58;98781.88;;;15.36;72.56
22018;BME280;11173;51.050;7.108;2023-07-02T03:19:59;98776.50;;;15.47;72.18
22018;BME280;11173;51.050;7.108;2023-07-02T03:29:59;98785.78;;;15.62;70.00
22018;BME280;11173;51.050;7.108;2023-07-02T03:40:00;98784.06;;;15.65;69.44
22018;BME280;11173;51.050;7.108;2023-07-02T03:50:00;98787.81;;;15.62;70.14
22018;BME280;11173;51.050;7.108;2023-07-02T04:00:01;98797.31;;;15.64;69.49
22018;BME280;11173;51.050;7.108;2023-07-02T04:10:02;98810.88;;;15.66;68.19
22018;BME280;11173;51.050;7.108;2023-07-02T04:20:03;98816.97;;;15.64;68.17
22018;BME280;11173;51.050;7.108;2023-07-02T04:30:04;98817.28;;;15.66;67.79
22018;BME280;11173;51.050;7.108;2023-07-02T04:40:06;98828.34;;;15.70;67.89
22018;BME280;11173;51.050;7.108;2023-07-02T04:50:10;98838.13;;;15.75;68.21
22018;BME280;11173;51.050;7.108;2023-07-02T05:00:11;98844.69;;;15.81;68.99
22018;BME280;11173;51.050;7.108;2023-07-02T05:10:12;98853.06;;;15.90;68.53
22018;BME280;11173;51.050;7.108;2023-07-02T05:20:13;98857.34;;;16.00;68.33
22018;BME280;11173;51.050;7.108;2023-07-02T05:30:13;98870.38;;;16.13;68.51
22018;BME280;11173;51.050;7.108;2023-07-02T05:40:14;98870.09;;;16.35;68.86
22018;BME280;11173;51.050;7.108;2023-07-02T05:50:14;98883.22;;;16.53;68.55
22018;BME280;11173;51.050;7.108;2023-07-02T06:00:15;98894.47;;;16.77;67.49
22018;BME280;11173;51.050;7.108;2023-07-02T06:10:16;98907.88;;;16.97;67.20
22018;BME280;11173;51.050;7.108;2023-07-02T06:20:17;98916.81;;;17.10;67.32
22018;BME280;11173;51.050;7.108;2023-07-02T06:30:17;98918.00;;;17.18;66.86
22018;BME280;11173;51.050;7.108;2023-07-02T06:40:18;98921.13;;;17.35;66.38
22018;BME280;11173;51.050;7.108;2023-07-02T06:50:18;98930.13;;;17.54;66.26
22018;BME280;11173;51.050;7.108;2023-07-02T07:00:19;98955.50;;;17.69;66.80
22018;BME280;11173;51.050;7.108;2023-07-02T07:10:19;98959.44;;;17.92;64.98
22018;BME280;11173;51.050;7.108;2023-07-02T07:20:20;98952.31;;;18.12;63.12
22018;BME280;11173;51.050;7.108;2023-07-02T07:30:21;98954.78;;;18.39;65.24
22018;BME280;11173;51.050;7.108;2023-07-02T07:40:24;98951.41;;;18.76;64.00
22018;BME280;11173;51.050;7.108;2023-07-02T07:50:24;98957.00;;;18.91;61.07
22018;BME280;11173;51.050;7.108;2023-07-02T08:00:25;98981.03;;;19.07;59.64
22018;BME280;11173;51.050;7.108;2023-07-02T08:10:27;98975.78;;;19.20;58.79
22018;BME280;11173;51.050;7.108;2023-07-02T08:20:27;98991.31;;;19.31;59.12
22018;BME280;11173;51.050;7.108;2023-07-02T08:30:28;98999.56;;;19.34;57.03
22018;BME280;11173;51.050;7.108;2023-07-02T08:40:28;98997.81;;;19.37;58.02
22018;BME280;11173;51.050;7.108;2023-07-02T08:50:28;99003.94;;;19.35;55.54
22018;BME280;11173;51.050;7.108;2023-07-02T09:00:29;99008.31;;;19.36;57.03
22018;BME280;11173;51.050;7.108;2023-07-02T09:10:35;99007.47;;;19.56;58.99
22018;BME280;11173;51.050;7.108;2023-07-02T09:20:35;99013.50;;;19.96;56.73
22018;BME280;11173;51.050;7.108;2023-07-02T09:30:36;99009.59;;;20.19;55.69
22018;BME280;11173;51.050;7.108;2023-07-02T09:40:45;99019.63;;;20.20;58.08
22018;BME280;11173;51.050;7.108;2023-07-02T09:50:48;99014.50;;;20.24;55.96
22018;BME280;11173;51.050;7.108;2023-07-02T10:00:50;99008.69;;;20.39;56.07
22018;BME280;11173;51.050;7.108;2023-07-02T10:10:50;99016.00;;;20.57;53.09
22018;BME280;11173;51.050;7.108;2023-07-02T10:20:50;99026.75;;;20.10;51.51
22018;BME280;11173;51.050;7.108;2023-07-02T10:30:51;99018.34;;;19.63;53.64
22018;BME280;11173;51.050;7.108;2023-07-02T10:40:57;99024.47;;;19.88;53.94
22018;BME280;11173;51.050;7.108;2023-07-02T10:50:58;99016.50;;;20.13;51.24
22018;BME280;11173;51.050;7.108;2023-07-02T11:00:58;99029.50;;;20.36;53.86
22018;BME280;11173;51.050;7.108;2023-07-02T11:11:08;99019.97;;;20.77;51.64
22018;BME280;11173;51.050;7.108;2023-07-02T11:21:10;99033.63;;;20.78;52.43
22018;BME280;11173;51.050;7.108;2023-07-02T11:31:11;99031.97;;;20.55;49.81
22018;BME280;11173;51.050;7.108;2023-07-02T11:41:11;99053.25;;;20.50;52.29
22018;BME280;11173;51.050;7.108;2023-07-02T11:51:13;99054.06;;;20.51;51.97
22018;BME280;11173;51.050;7.108;2023-07-02T12:01:13;99071.00;;;19.87;51.03
22018;BME280;11173;51.050;7.108;2023-07-02T12:11:14;99069.06;;;19.52;53.95
22018;BME280;11173;51.050;7.108;2023-07-02T12:21:14;99068.78;;;19.71;53.58
22018;BME280;11173;51.050;7.108;2023-07-02T12:31:15;99058.63;;;20.11;50.94
22018;BME280;11173;51.050;7.108;2023-07-02T12:41:16;99063.69;;;20.33;51.97
22018;BME280;11173;51.050;7.108;2023-07-02T12:51:16;99044.41;;;20.74;48.72
22018;BME280;11173;51.050;7.108;2023-07-02T13:01:17;99068.03;;;21.14;50.05
22018;BME280;11173;51.050;7.108;2023-07-02T13:11:17;99058.72;;;21.74;50.91
22018;BME280;11173;51.050;7.108;2023-07-02T13:21:18;99059.81;;;22.21;45.80
22018;BME280;11173;51.050;7.108;2023-07-02T13:31:18;99055.66;;;22.17;44.83
22018;BME280;11173;51.050;7.108;2023-07-02T13:41:19;99057.19;;;22.12;45.88
22018;BME280;11173;51.050;7.108;2023-07-02T13:51:19;99058.25;;;22.26;44.09
22018;BME280;11173;51.050;7.108;2023-07-02T14:01:19;99069.09;;;22.22;42.14
22018;BME280;11173;51.050;7.108;2023-07-02T14:11:21;99064.66;;;22.04;43.26
22018;BME280;11173;51.050;7.108;2023-07-02T14:21:21;99062.09;;;21.95;44.17
22018;BME280;11173;51.050;7.108;2023-07-02T14:31:22;99062.59;;;22.10;41.81
22018;BME280;11173;51.050;7.108;2023-07-02T14:41:22;99052.03;;;21.82;41.97
22018;BME280;11173;51.050;7.108;2023-07-02T14:51:23;99050.97;;;21.74;44.38
22018;BME280;11173;51.050;7.108;2023-07-02T15:01:23;99049.22;;;22.11;45.97
22018;BME280;11173;51.050;7.108;2023-07-02T15:11:24;99054.63;;;22.20;43.90
22018;BME280;11173;51.050;7.108;2023-07-02T15:21:25;99050.50;;;22.15;44.89
22018;BME280;11173;51.050;7.108;2023-07-02T15:31:25;99031.94;;;22.20;42.10
22018;BME280;11173;51.050;7.108;2023-07-02T15:41:25;99043.81;;;22.07;43.18
22018;BME280;11173;51.050;7.108;2023-07-02T15:51:27;99048.94;;;21.97;45.16
22018;BME280;11173;51.050;7.108;2023-07-02T16:01:28;99026.78;;;21.96;43.21
22018;BME280;11173;51.050;7.108;2023-07-02T16:11:29;99011.03;;;21.72;43.32
22018;BME280;11173;51.050;7.108;2023-07-02T16:21:34;99040.13;;;21.56;42.86
22018;BME280;11173;51.050;7.108;2023-07-02T16:31:34;99033.63;;;21.44;44.68
22018;BME280;11173;51.050;7.108;2023-07-02T16:41:36;99028.28;;;21.52;45.14
22018;BME280;11173;51.050;7.108;2023-07-02T16:51:39;99030.06;;;21.49;45.21
22018;BME280;11173;51.050;7.108;2023-07-02T17:01:47;99014.09;;;21.52;47.30
22018;BME280;11173;51.050;7.108;2023-07-02T17:11:51;99012.28;;;21.54;46.11
22018;BME280;11173;51.050;7.108;2023-07-02T17:21:53;99020.53;;;21.52;45.55
22018;BME280;11173;51.050;7.108;2023-07-02T17:31:55;99012.50;;;21.39;47.30
22018;BME280;11173;51.050;7.108;2023-07-02T17:41:57;99006.66;;;21.65;47.94
22018;BME280;11173;51.050;7.108;2023-07-02T17:51:58;98996.28;;;21.40;46.41
22018;BME280;11173;51.050;7.108;2023-07-02T18:01:58;98996.16;;;20.95;48.20
22018;BME280;11173;51.050;7.108;2023-07-02T18:11:58;98999.75;;;20.95;49.19
22018;BME280;11173;51.050;7.108;2023-07-02T18:21:59;98989.69;;;20.83;49.16
22018;BME280;11173;51.050;7.108;2023-07-02T18:32:04;98996.97;;;20.58;49.46
22018;BME280;11173;51.050;7.108;2023-07-02T18:42:07;98992.13;;;20.21;50.25
22018;BME280;11173;51.050;7.108;2023-07-02T18:52:11;98996.44;;;19.84;50.16
22018;BME280;11173;51.050;7.108;2023-07-02T19:02:12;98992.38;;;19.59;52.20
22018;BME280;11173;51.050;7.108;2023-07-02T19:12:12;98986.88;;;19.24;51.66
22018;BME280;11173;51.050;7.108;2023-07-02T19:22:18;98976.56;;;19.00;52.79
22018;BME280;11173;51.050;7.108;2023-07-02T19:32:20;98978.78;;;18.91;52.37
22018;BME280;11173;51.050;7.108;2023-07-02T19:42:20;98972.53;;;18.81;52.78
22018;BME280;11173;51.050;7.108;2023-07-02T19:52:22;98981.31;;;18.68;52.62
22018;BME280;11173;51.050;7.108;2023-07-02T20:02:23;98994.84;;;18.64;52.23
22018;BME280;11173;51.050;7.108;2023-07-02T20:12:24;98994.97;;;18.55;51.98
22018;BME280;11173;51.050;7.108;2023-07-02T20:22:28;98994.41;;;18.51;50.23
22018;BME280;11173;51.050;7.108;2023-07-02T20:32:28;98996.94;;;18.48;50.40
22018;BME280;11173;51.050;7.108;2023-07-02T20:42:28;99003.97;;;18.38;50.95
22018;BME280;11173;51.050;7.108;2023-07-02T20:52:29;99018.19;;;18.29;50.90
22018;BME280;11173;51.050;7.108;2023-07-02T21:02:30;99028.31;;;18.21;50.96
22018;BME280;11173;51.050;7.108;2023-07-02T21:12:30;99023.25;;;18.25;49.96
22018;BME280;11173;51.050;7.108;2023-07-02T21:22:30;99039.59;;;18.21;49.57
22018;BME280;11173;51.050;7.108;2023-07-02T21:32:32;99048.44;;;18.14;49.99
22018;BME280;11173;51.050;7.108;2023-07-02T21:42:32;99060.91;;;18.07;50.35
22018;BME280;11173;51.050;7.108;2023-07-02T21:52:32;99040.22;;;17.95;49.12
22018;BME280;11173;51.050;7.108;2023-07-02T22:02:33;99083.63;;;17.74;49.46
22018;BME280;11173;51.050;7.108;2023-07-02T22:12:33;99086.28;;;17.53;49.48
22018;BME280;11173;51.050;7.108;2023-07-02T22:22:34;99078.72;;;17.20;50.22
22018;BME280;11173;51.050;7.108;2023-07-02T22:32:35;99084.47;;;16.78;49.63
22018;BME280;11173;51.050;7.108;2023-07-02T22:42:37;99086.66;;;16.40;49.42
22018;BME280;11173;51.050;7.108;2023-07-02T22:52:38;99077.38;;;16.06;50.02
22018;BME280;11173;51.050;7.108;2023-07-02T23:02:40;99073.72;;;15.82;49.99
22018;BME280;11173;51.050;7.108;2023-07-02T23:12:47;99083.38;;;15.53;51.40
22018;BME280;11173;51.050;7.108;2023-07-02T23:22:49;99074.97;;;15.25;52.37
22018;BME280;11173;51.050;7.108;2023-07-02T23:32:50;99063.13;;;15.12;53.91
22018;BME280;11173;51.050;7.108;2023-07-02T23:42:51;99064.22;;;15.05;54.84
22018;BME280;11173;51.050;7.108;2023-07-02T23:52:51;99057.81;;;14.96;54.92
